Terminal Aerodrome Forecast
Issued by NWS

Home | Current Version | Previous Version | Text Only | Print | Product List | Glossary On
Versions: 1 2 3 4 5 6 7 8 9 10 11 12 13 14 15 16 17 18 19 20 21 22 23 24 25 26 27 28 29 30 31 32 33 34 35 36 37 38 39 40 41 42 43 44 45
000
FTUS41 KRNK 020525
TAFLWB
TAF
KLWB 020525Z 0206/0306 02003KT P6SM BKN020 OVC035
      TEMPO 0208/0212 1/2SM FG VV001
     FM021300 05003KT P6SM OVC013
     FM021700 VRB03KT P6SM SCT035 BKN050
     FM022100 16003KT P6SM VCSH BKN040
     FM030100 00000KT P6SM SCT035 BKN100=

USA.gov is the U.S. government's official web portal to all federal, state and local government web resources and services.